Baldwin, New York
Current Conditions -  °F | °C
As of 5:51 AM on Saturday 20 Dec 2014 (Local Time) from KJFK Reporting Station
Overcast Overcast  
Wind Chill: 26°   Ceiling: 2800
Heat Index: 32°   Visibility: 10mi
Dew Point: 20°   Wind: 7mph
Humidity: 61%   Direction: 10°N
Pressure: 30.27"   Gusts: NA
Location:  40.66°N, 73.61°W
Report Text: KJFK 201051Z 01006KT 10SM OVC028 00/M07 A3027 RMK AO2 SLP249 T00001067 $
Loading
Personal Weather Stations






























Interactive Weather Map New forecast layout! Learn more

10-Day Weather Forecast

Advertisements
Track Severe Weather on mobile